Time;durP1;ratioP1;P1;durP2;ratioP2;P2;SDS_P1;SDS_P2;PMS_P1;PMS_P2;Temp;Humidity;BMP_temperature;BMP_pressure;BME280_temperature;BME280_humidity;BME280_pressure;Samples;Min_cycle;Max_cycle;Signal;HPM_P1;HPM_P2
2022/07/01 00:00:20;;;;;;;0.00;0.00;;;23.40;36.00;;;;;;5079992;28;20387;-78
2022/07/01 00:02:46;;;;;;;0.00;0.00;;;23.30;36.80;;;;;;5070683;28;20028;-78
2022/07/01 00:05:13;;;;;;;0.00;0.00;;;23.30;36.50;;;;;;5083364;28;20032;-77
2022/07/01 00:07:39;;;;;;;0.00;0.00;;;23.40;36.30;;;;;;5083415;28;20028;-77
2022/07/01 00:10:05;;;;;;;0.00;0.00;;;23.10;37.00;;;;;;5078165;28;20558;-78
2022/07/01 00:12:31;;;;;;;0.00;0.00;;;22.90;37.90;;;;;;5081924;28;20469;-78
2022/07/01 00:14:57;;;;;;;0.00;0.00;;;22.60;38.10;;;;;;5095679;28;20043;-79
2022/07/01 00:17:23;;;;;;;0.00;0.00;;;22.70;39.40;;;;;;5113154;28;20032;-79
2022/07/01 00:19:50;;;;;;;2.10;2.00;;;22.40;40.00;;;;;;5076849;28;20119;-79
2022/07/01 00:22:16;;;;;;;0.00;0.00;;;22.50;40.40;;;;;;5082520;28;20418;-77
2022/07/01 00:24:45;;;;;;;1.45;1.35;;;22.80;40.30;;;;;;5101118;28;20106;-77
2022/07/01 00:27:12;;;;;;;0.00;0.00;;;23.20;40.00;;;;;;5082814;28;20042;-78
2022/07/01 00:29:39;;;;;;;0.00;0.00;;;23.60;39.60;;;;;;5109019;28;20326;-78
2022/07/01 00:32:05;;;;;;;0.00;0.00;;;24.40;37.30;;;;;;5078219;28;20406;-77
2022/07/01 00:34:31;;;;;;;0.00;0.00;;;25.10;36.00;;;;;;5099676;28;20103;-78
2022/07/01 00:36:57;;;;;;;0.00;0.00;;;25.60;34.90;;;;;;5102632;28;20107;-77
2022/07/01 00:39:23;;;;;;;0.00;0.00;;;26.10;33.00;;;;;;5101209;28;20073;-77
2022/07/01 00:41:49;;;;;;;0.00;0.00;;;26.50;31.10;;;;;;5103497;28;20024;-78
2022/07/01 00:44:19;;;;;;;0.22;0.22;;;26.90;30.30;;;;;;5111913;28;20062;-78
2022/07/01 00:46:49;;;;;;;0.00;0.00;;;27.30;30.00;;;;;;5086830;28;20015;-77
2022/07/01 00:49:15;;;;;;;0.00;0.00;;;27.70;29.40;;;;;;5107375;28;20103;-78
2022/07/01 00:51:41;;;;;;;0.00;0.00;;;28.40;29.20;;;;;;5088079;28;20097;-79
2022/07/01 00:54:07;;;;;;;0.00;0.00;;;28.70;28.30;;;;;;5108590;28;20481;-79
2022/07/01 00:56:34;;;;;;;0.00;0.00;;;29.20;28.20;;;;;;5093632;28;20024;-79
2022/07/01 00:59:00;;;;;;;0.00;0.00;;;29.50;27.90;;;;;;5093986;28;20070;-79
2022/07/01 01:01:26;;;;;;;0.00;0.00;;;28.50;29.40;;;;;;5108535;28;20020;-78
2022/07/01 01:03:52;;;;;;;0.00;0.00;;;29.20;27.50;;;;;;5108121;28;20027;-77
2022/07/01 01:06:18;;;;;;;0.00;0.00;;;29.80;27.00;;;;;;5111267;27;20063;-77
2022/07/01 01:08:46;;;;;;;0.00;0.00;;;30.40;26.90;;;;;;5104047;28;20024;-78
2022/07/01 01:11:13;;;;;;;0.00;0.00;;;30.70;26.40;;;;;;5105009;28;20024;-78
2022/07/01 01:13:39;;;;;;;1.67;1.58;;;31.00;26.00;;;;;;5106439;28;20019;-78
2022/07/01 01:16:06;;;;;;;0.03;0.03;;;31.30;25.60;;;;;;5111107;28;20389;-77
2022/07/01 01:18:33;;;;;;;0.00;0.00;;;31.40;25.40;;;;;;5082471;28;20055;-76
2022/07/01 01:21:00;;;;;;;0.00;0.00;;;31.60;25.40;;;;;;5098523;28;20016;-76
2022/07/01 01:23:26;;;;;;;0.10;0.10;;;31.70;25.30;;;;;;5101125;28;20164;-77
2022/07/01 01:25:52;;;;;;;0.00;0.00;;;32.00;25.30;;;;;;5111716;28;20020;-76
2022/07/01 01:28:18;;;;;;;0.00;0.00;;;32.10;25.60;;;;;;5093752;28;20490;-75
2022/07/01 01:30:44;;;;;;;0.10;0.10;;;31.90;25.10;;;;;;5076007;28;20546;-76
2022/07/01 01:33:11;;;;;;;0.00;0.00;;;30.10;26.40;;;;;;5099325;28;20038;-76
2022/07/01 01:35:38;;;;;;;0.10;0.10;;;29.30;27.60;;;;;;5113311;28;20019;-75
2022/07/01 01:38:05;;;;;;;0.00;0.00;;;28.60;28.10;;;;;;5094757;28;20091;-76
2022/07/01 01:40:31;;;;;;;0.32;0.32;;;28.80;27.70;;;;;;5110512;28;20054;-76
2022/07/01 01:42:57;;;;;;;0.00;0.00;;;29.10;27.40;;;;;;5107683;28;20529;-76
2022/07/01 01:45:23;;;;;;;0.00;0.00;;;28.80;28.10;;;;;;5107819;28;20023;-76
2022/07/01 01:47:49;;;;;;;0.00;0.00;;;28.80;28.60;;;;;;5078734;28;20409;-75
2022/07/01 01:50:15;;;;;;;0.00;0.00;;;29.10;28.80;;;;;;5105060;28;20469;-75
2022/07/01 01:52:45;;;;;;;0.00;0.00;;;29.60;27.40;;;;;;5086172;28;20115;-77
2022/07/01 01:55:12;;;;;;;0.08;0.08;;;29.30;28.00;;;;;;5099597;28;20040;-77
2022/07/01 01:57:38;;;;;;;0.28;0.10;;;28.40;29.70;;;;;;5092196;28;20031;-76
2022/07/01 02:00:07;;;;;;;0.38;0.25;;;27.70;29.40;;;;;;5081807;28;20031;-76
2022/07/01 02:02:36;;;;;;;1.48;1.38;;;27.00;30.00;;;;;;5092669;28;20065;-78
2022/07/01 02:05:07;;;;;;;0.00;0.00;;;27.00;30.40;;;;;;5097479;28;20520;-78
2022/07/01 02:07:35;;;;;;;0.05;0.05;;;27.10;30.90;;;;;;5113139;28;20023;-77
2022/07/01 02:10:01;;;;;;;0.10;0.10;;;27.00;30.00;;;;;;5099042;28;20028;-78
2022/07/01 02:12:27;;;;;;;0.75;0.75;;;27.50;29.40;;;;;;5074904;28;20031;-78
2022/07/01 02:14:53;;;;;;;0.00;0.00;;;27.50;28.80;;;;;;5095426;28;20616;-77
2022/07/01 02:17:19;;;;;;;0.00;0.00;;;27.20;29.40;;;;;;5084683;28;20038;-78
2022/07/01 02:19:45;;;;;;;2.03;1.45;;;27.90;28.80;;;;;;5091890;28;20012;-75
2022/07/01 02:22:11;;;;;;;0.22;0.22;;;28.20;28.10;;;;;;5122447;28;20027;-76
2022/07/01 02:24:37;;;;;;;0.00;0.00;;;27.80;27.90;;;;;;5100539;28;20027;-77
2022/07/01 02:27:03;;;;;;;1.20;0.73;;;28.10;28.20;;;;;;5102067;28;20028;-76
2022/07/01 02:29:29;;;;;;;0.05;0.05;;;28.60;28.00;;;;;;5092906;28;20030;-75
2022/07/01 02:31:55;;;;;;;0.15;0.13;;;28.60;28.30;;;;;;5101510;28;20024;-75
2022/07/01 02:34:21;;;;;;;0.93;0.73;;;29.00;27.60;;;;;;5107046;28;20035;-77
2022/07/01 02:36:48;;;;;;;0.43;0.43;;;29.30;27.60;;;;;;5091573;28;20024;-76
2022/07/01 02:39:14;;;;;;;0.00;0.00;;;29.60;26.80;;;;;;5106889;28;20019;-76
2022/07/01 02:44:29;;;;;;;0.00;0.00;;;30.00;26.30;;;;;;5079562;28;20084;-76
2022/07/01 02:46:55;;;;;;;0.00;0.00;;;29.90;26.20;;;;;;5110895;27;20494;-77
2022/07/01 02:49:21;;;;;;;0.00;0.00;;;30.70;26.40;;;;;;5110519;27;20154;-76
2022/07/01 02:51:47;;;;;;;0.00;0.00;;;31.80;25.30;;;;;;5109299;28;20533;-76
2022/07/01 02:54:13;;;;;;;0.10;0.10;;;32.30;24.90;;;;;;5108435;27;20023;-75
2022/07/01 02:56:39;;;;;;;0.00;0.00;;;32.90;24.40;;;;;;5107349;27;20586;-76
2022/07/01 02:59:05;;;;;;;0.03;0.03;;;33.20;24.30;;;;;;5102630;28;20024;-76
2022/07/01 03:01:32;;;;;;;0.00;0.00;;;33.70;23.70;;;;;;5101973;28;20028;-78
2022/07/01 03:03:58;;;;;;;0.00;0.00;;;32.40;24.40;;;;;;5111086;28;20022;-75
2022/07/01 03:06:26;;;;;;;0.00;0.00;;;31.00;24.70;;;;;;5115136;27;20550;-77
2022/07/01 03:08:55;;;;;;;0.17;0.10;;;29.30;26.60;;;;;;5104327;28;20027;-77
2022/07/01 03:11:21;;;;;;;0.47;0.47;;;29.90;26.10;;;;;;5106564;27;20059;-75
2022/07/01 03:13:47;;;;;;;0.05;0.05;;;31.30;25.50;;;;;;5111105;27;20054;-76
2022/07/01 03:16:14;;;;;;;0.47;0.38;;;31.90;25.00;;;;;;5112185;27;20545;-76
2022/07/01 03:18:41;;;;;;;0.00;0.00;;;30.80;26.60;;;;;;5106317;27;20111;-76
2022/07/01 03:21:06;;;;;;;0.10;0.10;;;29.80;27.30;;;;;;5112755;27;20024;-76
2022/07/01 03:23:32;;;;;;;0.00;0.00;;;30.80;26.60;;;;;;5091323;27;20028;-76
2022/07/01 03:25:59;;;;;;;8.00;1.60;;;31.70;25.30;;;;;;5090649;28;20327;-77
2022/07/01 03:28:25;;;;;;;0.00;0.00;;;32.60;25.00;;;;;;5105707;27;20122;-76
2022/07/01 03:30:51;;;;;;;0.25;0.25;;;33.10;25.00;;;;;;5095369;28;20111;-76
2022/07/01 03:33:17;;;;;;;0.00;0.00;;;32.00;24.10;;;;;;5106277;27;20392;-76
2022/07/01 03:35:45;;;;;;;0.10;0.10;;;32.70;24.90;;;;;;5109724;27;20035;-77
2022/07/01 03:38:12;;;;;;;0.15;0.15;;;33.60;22.60;;;;;;5105471;28;20024;-76
2022/07/01 03:40:38;;;;;;;0.00;0.00;;;34.20;23.10;;;;;;5111657;27;20023;-77
2022/07/01 03:43:05;;;;;;;0.00;0.00;;;33.10;23.90;;;;;;5111141;27;20066;-79
2022/07/01 03:45:31;;;;;;;2.17;2.08;;;33.10;24.30;;;;;;5090870;28;20028;-78
2022/07/01 03:47:58;;;;;;;1.33;0.43;;;32.30;25.00;;;;;;5110351;27;20080;-78
2022/07/01 03:50:25;;;;;;;0.00;0.00;;;31.50;24.60;;;;;;5102630;28;20024;-77
2022/07/01 03:55:38;;;;;;;0.00;0.00;;;32.10;24.70;;;;;;5110518;27;20111;-78
2022/07/01 03:58:04;;;;;;;0.00;0.00;;;32.30;24.10;;;;;;5104381;27;20030;-75
2022/07/01 04:00:33;;;;;;;0.00;0.00;;;32.00;24.80;;;;;;5083044;27;20027;-75
2022/07/01 04:03:00;;;;;;;0.00;0.00;;;32.00;24.50;;;;;;5089152;28;20124;-76
2022/07/01 04:05:26;;;;;;;0.00;0.00;;;31.90;23.70;;;;;;5112010;27;20023;-76
2022/07/01 04:07:52;;;;;;;0.10;0.10;;;31.30;24.10;;;;;;5106033;27;20024;-77
2022/07/01 04:10:18;;;;;;;0.98;0.90;;;30.90;25.90;;;;;;5101904;27;20077;-76
2022/07/01 04:12:44;;;;;;;0.00;0.00;;;29.50;26.30;;;;;;5092777;27;20024;-76
2022/07/01 04:15:11;;;;;;;0.15;0.15;;;29.60;26.00;;;;;;5082443;28;20044;-78
2022/07/01 04:17:37;;;;;;;0.00;0.00;;;28.50;28.70;;;;;;5113861;27;20050;-77
2022/07/01 04:20:04;;;;;;;0.03;0.03;;;28.30;29.60;;;;;;5104276;28;20019;-77
2022/07/01 04:22:33;;;;;;;0.17;0.15;;;27.70;28.30;;;;;;5102972;28;20032;-83
2022/07/01 04:25:00;;;;;;;0.00;0.00;;;27.20;29.70;;;;;;5107229;27;20027;-77
2022/07/01 04:27:27;;;;;;;0.30;0.20;;;27.10;30.30;;;;;;5087485;28;20489;-77
2022/07/01 04:29:53;;;;;;;0.00;0.00;;;27.20;29.60;;;;;;5105548;28;20478;-76
2022/07/01 04:32:19;;;;;;;1.17;0.85;;;26.60;30.00;;;;;;5108594;28;20019;-76
2022/07/01 04:34:45;;;;;;;0.45;0.45;;;26.70;30.70;;;;;;5107058;28;20422;-79
2022/07/01 04:37:12;;;;;;;0.10;0.10;;;26.50;29.40;;;;;;5104552;27;20077;-77
2022/07/01 04:39:38;;;;;;;0.00;0.00;;;26.80;29.90;;;;;;5101106;27;20067;-77
2022/07/01 04:42:04;;;;;;;0.00;0.00;;;26.70;28.80;;;;;;5082446;28;20023;-78
2022/07/01 04:44:35;;;;;;;0.00;0.00;;;26.30;27.90;;;;;;5097873;27;20095;-78
2022/07/01 04:47:02;;;;;;;0.30;0.13;;;26.50;28.80;;;;;;5102943;28;20028;-79
2022/07/01 04:49:29;;;;;;;0.05;0.05;;;26.90;28.90;;;;;;5108256;27;20080;-79
2022/07/01 04:51:56;;;;;;;0.00;0.00;;;27.30;28.90;;;;;;5104300;27;20024;-80
2022/07/01 04:54:22;;;;;;;0.68;0.57;;;27.00;30.20;;;;;;5080358;28;20062;-80
2022/07/01 04:56:49;;;;;;;0.38;0.38;;;26.80;29.10;;;;;;5103406;27;20036;-80
2022/07/01 04:59:16;;;;;;;0.00;0.00;;;26.70;29.00;;;;;;5105713;27;20019;-79
2022/07/01 05:01:43;;;;;;;0.00;0.00;;;27.00;28.70;;;;;;5106841;27;20020;-80
2022/07/01 05:04:10;;;;;;;0.15;0.10;;;26.70;28.90;;;;;;5110985;27;20032;-79
2022/07/01 05:06:37;;;;;;;1.38;1.27;;;27.10;28.00;;;;;;5114479;27;20030;-77
2022/07/01 05:09:03;;;;;;;0.00;0.00;;;27.30;28.00;;;;;;5080986;28;20024;-78
2022/07/01 05:11:29;;;;;;;0.00;0.00;;;26.80;26.60;;;;;;5087412;28;20043;-78
2022/07/01 05:13:55;;;;;;;0.00;0.00;;;26.80;28.00;;;;;;5108152;27;20023;-77
2022/07/01 05:16:21;;;;;;;0.00;0.00;;;27.30;27.90;;;;;;5112420;28;20054;-78
2022/07/01 05:24:16;;;;;;;0.30;0.10;;;26.80;27.60;;;;;;5113189;27;20027;-77
2022/07/01 05:26:42;;;;;;;0.35;0.20;;;26.70;27.20;;;;;;5105235;27;20030;-76
2022/07/01 05:29:08;;;;;;;0.00;0.00;;;26.80;27.50;;;;;;5106475;27;20061;-77
2022/07/01 05:31:34;;;;;;;0.00;0.00;;;26.40;26.30;;;;;;5105722;27;20052;-76
2022/07/01 05:34:01;;;;;;;0.00;0.00;;;26.30;26.30;;;;;;5102246;27;20621;-75
2022/07/01 05:36:27;;;;;;;0.00;0.00;;;26.30;25.40;;;;;;5100250;27;20055;-77
2022/07/01 05:38:53;;;;;;;0.00;0.00;;;26.10;26.00;;;;;;5104847;28;20023;-77
2022/07/01 05:41:19;;;;;;;0.00;0.00;;;26.60;26.20;;;;;;5104565;27;20086;-76
2022/07/01 05:43:45;;;;;;;0.52;0.45;;;27.20;27.30;;;;;;5103464;28;20017;-77
2022/07/01 05:46:11;;;;;;;0.10;0.10;;;27.30;28.10;;;;;;5111488;28;20038;-77
2022/07/01 05:48:37;;;;;;;0.00;0.00;;;27.60;27.50;;;;;;5102131;27;21473;-77
2022/07/01 05:51:03;;;;;;;0.00;0.00;;;27.50;27.70;;;;;;5106770;28;20110;-77
2022/07/01 05:53:29;;;;;;;0.25;0.22;;;27.40;26.80;;;;;;5102623;27;20257;-76
2022/07/01 05:55:55;;;;;;;0.00;0.00;;;27.10;27.00;;;;;;5106084;27;20027;-77
2022/07/01 05:58:21;;;;;;;0.10;0.10;;;27.10;25.70;;;;;;5100469;27;20024;-79
2022/07/01 06:00:50;;;;;;;0.00;0.00;;;27.00;25.20;;;;;;5104758;28;20084;-78
2022/07/01 06:03:16;;;;;;;0.10;0.10;;;27.20;25.50;;;;;;5098345;27;20016;-76
2022/07/01 06:05:42;;;;;;;0.00;0.00;;;27.30;26.80;;;;;;5079556;28;20489;-78
2022/07/01 06:08:09;;;;;;;0.00;0.00;;;27.60;26.60;;;;;;5123593;27;20388;-78
2022/07/01 06:10:35;;;;;;;0.00;0.00;;;27.40;25.30;;;;;;5100999;28;20110;-81
2022/07/01 06:13:02;;;;;;;0.00;0.00;;;27.50;25.80;;;;;;5114613;28;20032;-80
2022/07/01 06:15:30;;;;;;;0.00;0.00;;;27.70;25.70;;;;;;5103295;28;20052;-82
2022/07/01 06:17:57;;;;;;;0.00;0.00;;;27.30;26.50;;;;;;5112295;28;20047;-81
2022/07/01 06:20:23;;;;;;;0.00;0.00;;;27.20;25.60;;;;;;5124631;28;20004;-79
2022/07/01 06:22:49;;;;;;;0.57;0.57;;;27.10;26.50;;;;;;5098691;28;20023;-81
2022/07/01 06:25:15;;;;;;;0.00;0.00;;;27.30;27.00;;;;;;5094435;28;20038;-81
2022/07/01 06:27:43;;;;;;;4.22;1.05;;;26.60;26.70;;;;;;5081993;28;20028;-82
2022/07/01 06:30:10;;;;;;;0.00;0.00;;;26.90;26.60;;;;;;5086789;28;20062;-79
2022/07/01 06:32:36;;;;;;;0.00;0.00;;;27.30;27.50;;;;;;5081536;28;20058;-81
2022/07/01 06:35:03;;;;;;;0.00;0.00;;;27.40;25.70;;;;;;5102139;28;20024;-80
2022/07/01 06:37:32;;;;;;;0.10;0.00;;;27.70;26.70;;;;;;5076616;28;20123;-83
2022/07/01 06:39:58;;;;;;;0.00;0.00;;;27.40;26.20;;;;;;5099554;28;20128;-84
2022/07/01 06:42:24;;;;;;;0.20;0.10;;;27.50;25.40;;;;;;5099301;28;20119;-82
2022/07/01 06:44:50;;;;;;;0.10;0.10;;;27.60;26.50;;;;;;5085951;28;20380;-82
2022/07/01 06:47:16;;;;;;;0.10;0.10;;;27.60;26.40;;;;;;5082445;28;20028;-78
2022/07/01 06:49:42;;;;;;;0.00;0.00;;;27.80;25.10;;;;;;5080930;28;20031;-79
2022/07/01 06:52:09;;;;;;;1.17;1.15;;;27.90;25.30;;;;;;5099775;28;20028;-79
2022/07/01 06:54:37;;;;;;;0.00;0.00;;;27.60;26.10;;;;;;5096477;28;20028;-80
2022/07/01 06:57:04;;;;;;;0.00;0.00;;;27.60;26.80;;;;;;5100197;28;20019;-78
2022/07/01 06:59:30;;;;;;;0.00;0.00;;;27.80;26.10;;;;;;5097634;28;20042;-79
2022/07/01 07:01:56;;;;;;;0.10;0.10;;;27.70;26.20;;;;;;5093106;28;20435;-77
2022/07/01 07:04:22;;;;;;;0.00;0.00;;;27.50;26.70;;;;;;5097719;28;20051;-81
2022/07/01 07:06:48;;;;;;;0.25;0.25;;;27.50;27.00;;;;;;5112092;28;20059;-80
2022/07/01 07:09:15;;;;;;;0.00;0.00;;;27.70;27.10;;;;;;5106972;28;20031;-78
2022/07/01 07:11:41;;;;;;;0.00;0.00;;;27.60;27.20;;;;;;5083962;28;20077;-80
2022/07/01 07:14:07;;;;;;;0.00;0.00;;;27.30;26.60;;;;;;5082136;28;20032;-76
2022/07/01 07:16:33;;;;;;;0.28;0.13;;;27.90;26.70;;;;;;5105148;28;20035;-80
2022/07/01 07:18:59;;;;;;;0.13;0.13;;;28.10;26.90;;;;;;5081993;28;20106;-79
2022/07/01 07:21:25;;;;;;;3.00;2.83;;;27.90;26.60;;;;;;5098754;28;20020;-80
2022/07/01 07:23:51;;;;;;;0.82;0.73;;;27.80;26.40;;;;;;5084258;28;20024;-80
2022/07/01 07:26:17;;;;;;;0.00;0.00;;;27.70;27.60;;;;;;5090228;28;20442;-81
2022/07/01 07:28:43;;;;;;;1.25;1.25;;;27.70;26.30;;;;;;5107036;28;20031;-79
2022/07/01 07:31:09;;;;;;;0.15;0.10;;;27.80;27.70;;;;;;5108053;28;20064;-80
2022/07/01 07:33:36;;;;;;;0.00;0.00;;;27.80;26.90;;;;;;5099651;28;20027;-80
2022/07/01 07:36:07;;;;;;;0.00;0.00;;;27.60;26.90;;;;;;5101388;28;20024;-81
2022/07/01 07:38:33;;;;;;;0.00;0.00;;;27.90;27.50;;;;;;5102519;28;20035;-79
2022/07/01 07:41:00;;;;;;;0.10;0.10;;;28.20;27.50;;;;;;5089597;28;20489;-79
2022/07/01 07:43:26;;;;;;;0.10;0.05;;;28.50;28.00;;;;;;5100528;28;20031;-80
2022/07/01 07:45:53;;;;;;;0.08;0.05;;;28.50;27.40;;;;;;5099873;28;20024;-77
2022/07/01 07:48:19;;;;;;;0.00;0.00;;;28.50;26.90;;;;;;5101004;28;20107;-77
2022/07/01 07:50:47;;;;;;;0.00;0.00;;;28.30;27.30;;;;;;5100797;28;20156;-77
2022/07/01 07:53:13;;;;;;;0.32;0.20;;;28.60;27.10;;;;;;5102137;28;20016;-75
2022/07/01 07:55:40;;;;;;;0.00;0.00;;;28.50;26.90;;;;;;5099772;28;20027;-78
2022/07/01 07:58:06;;;;;;;0.20;0.20;;;28.80;26.70;;;;;;5087347;28;20039;-79
2022/07/01 08:00:33;;;;;;;0.20;0.20;;;28.70;26.90;;;;;;5092398;28;20019;-79
2022/07/01 08:02:59;;;;;;;0.32;0.15;;;28.50;26.60;;;;;;5105065;28;20041;-78
2022/07/01 08:05:25;;;;;;;0.05;0.05;;;28.50;27.20;;;;;;5107203;28;20104;-78
2022/07/01 08:07:51;;;;;;;0.00;0.00;;;28.40;26.90;;;;;;5104626;28;20055;-78
2022/07/01 08:10:17;;;;;;;0.00;0.00;;;28.30;27.80;;;;;;5103510;28;20115;-79
2022/07/01 08:12:43;;;;;;;0.17;0.00;;;28.60;26.80;;;;;;5110899;28;20024;-77
2022/07/01 08:15:09;;;;;;;0.00;0.00;;;28.80;27.70;;;;;;5109063;28;20044;-79
2022/07/01 08:17:35;;;;;;;0.00;0.00;;;29.30;27.50;;;;;;5105159;28;20107;-78
2022/07/01 08:20:02;;;;;;;0.08;0.00;;;29.70;26.40;;;;;;5089988;27;20035;-77
2022/07/01 08:22:28;;;;;;;0.10;0.10;;;29.50;26.70;;;;;;5085917;28;20024;-75
2022/07/01 08:24:54;;;;;;;0.10;0.10;;;29.00;26.80;;;;;;5107491;28;20024;-76
2022/07/01 08:27:20;;;;;;;0.00;0.00;;;29.10;27.40;;;;;;5102096;28;20093;-77
2022/07/01 08:29:46;;;;;;;0.55;0.55;;;29.00;27.10;;;;;;5096592;28;20122;-77
2022/07/01 08:32:12;;;;;;;0.00;0.00;;;29.00;27.40;;;;;;5098800;28;20055;-77
2022/07/01 08:34:38;;;;;;;0.10;0.10;;;28.80;28.10;;;;;;5082965;28;20070;-76
2022/07/01 08:37:05;;;;;;;0.45;0.20;;;29.00;26.90;;;;;;5079421;28;20088;-76
2022/07/01 08:39:31;;;;;;;0.00;0.00;;;29.10;26.70;;;;;;5105966;28;20036;-77
2022/07/01 08:41:57;;;;;;;1.75;0.90;;;29.20;26.80;;;;;;5096450;28;20608;-77
2022/07/01 08:44:24;;;;;;;0.10;0.08;;;28.90;26.90;;;;;;5089391;28;20027;-76
2022/07/01 08:46:50;;;;;;;0.00;0.00;;;29.10;26.70;;;;;;5091347;27;20035;-75
2022/07/01 08:49:17;;;;;;;0.00;0.00;;;29.50;26.90;;;;;;5079421;28;20039;-77
2022/07/01 08:51:43;;;;;;;0.15;0.15;;;29.60;27.10;;;;;;5091494;28;20544;-75
2022/07/01 08:54:09;;;;;;;0.20;0.20;;;29.60;27.50;;;;;;5105346;27;20036;-75
2022/07/01 08:56:41;;;;;;;0.10;0.10;;;29.80;27.80;;;;;;5097901;28;20024;-76
2022/07/01 08:59:12;;;;;;;0.10;0.10;;;29.60;27.30;;;;;;5092188;28;20115;-77
2022/07/01 09:01:39;;;;;;;0.00;0.00;;;29.60;26.90;;;;;;5100019;28;20062;-77
2022/07/01 09:04:20;;;;;;;0.55;0.55;;;29.60;28.00;;;;;;5087458;28;20084;-77
2022/07/01 09:06:47;;;;;;;1.08;0.15;;;29.40;27.80;;;;;;5087839;28;20085;-76
2022/07/01 09:09:15;;;;;;;0.00;0.00;;;29.80;27.70;;;;;;5085500;28;20024;-74
2022/07/01 09:11:46;;;;;;;1.67;0.98;;;29.90;27.50;;;;;;5097334;28;20040;-74
2022/07/01 09:14:14;;;;;;;0.00;0.00;;;29.60;28.60;;;;;;5082038;28;20406;-74
2022/07/01 09:16:52;;;;;;;0.35;0.35;;;29.50;28.50;;;;;;5098298;28;20038;-76
2022/07/01 09:19:20;;;;;;;0.43;0.38;;;29.40;27.80;;;;;;5093234;28;20027;-76
2022/07/01 09:22:01;;;;;;;0.68;0.52;;;29.30;28.80;;;;;;5104805;28;20054;-76
2022/07/01 09:24:32;;;;;;;0.00;0.00;;;29.30;28.70;;;;;;5080734;28;20020;-76
2022/07/01 09:27:11;;;;;;;0.22;0.03;;;29.30;28.80;;;;;;5103255;28;20050;-76
2022/07/01 09:29:39;;;;;;;0.00;0.00;;;29.50;28.50;;;;;;5098100;27;20028;-78
2022/07/01 09:32:08;;;;;;;0.00;0.00;;;29.60;28.60;;;;;;5101817;28;20034;-83
2022/07/01 09:34:43;;;;;;;1.35;0.20;;;29.60;27.90;;;;;;5102159;28;20018;-81
2022/07/01 09:37:12;;;;;;;0.00;0.00;;;29.70;28.70;;;;;;5084135;28;20032;-81
2022/07/01 09:39:57;;;;;;;0.00;0.00;;;30.00;28.10;;;;;;5097138;28;20020;-81
2022/07/01 09:42:27;;;;;;;0.00;0.00;;;30.30;28.20;;;;;;5081915;28;20477;-81
2022/07/01 09:44:57;;;;;;;0.00;0.00;;;30.00;28.60;;;;;;5100214;28;20028;-81
2022/07/01 09:47:24;;;;;;;0.00;0.00;;;30.30;28.40;;;;;;5085587;28;20516;-81
2022/07/01 09:49:51;;;;;;;0.00;0.00;;;30.60;27.90;;;;;;5097618;27;20059;-78
2022/07/01 09:52:17;;;;;;;0.10;0.10;;;30.70;28.30;;;;;;5080069;28;20055;-77
2022/07/01 09:54:47;;;;;;;0.00;0.00;;;30.90;28.30;;;;;;5097950;28;20042;-78
2022/07/01 09:57:14;;;;;;;0.10;0.10;;;30.40;28.10;;;;;;5079488;28;20432;-76
2022/07/01 09:59:40;;;;;;;0.90;0.90;;;30.00;28.40;;;;;;5098484;27;20085;-78
2022/07/01 10:02:08;;;;;;;0.05;0.00;;;29.80;28.20;;;;;;5097506;28;20020;-78
2022/07/01 10:04:42;;;;;;;0.43;0.38;;;29.90;28.10;;;;;;5087401;28;20122;-78
2022/07/01 10:07:28;;;;;;;0.60;0.60;;;30.00;27.90;;;;;;5094268;28;20092;-79
2022/07/01 10:10:12;;;;;;;0.00;0.00;;;29.60;28.10;;;;;;5080629;28;20050;-77
2022/07/01 10:12:46;;;;;;;1.13;0.10;;;29.40;29.00;;;;;;5101248;27;20020;-78
2022/07/01 10:15:17;;;;;;;0.00;0.00;;;29.10;29.10;;;;;;5098054;27;20198;-78
2022/07/01 10:17:48;;;;;;;0.00;0.00;;;29.30;29.10;;;;;;5084130;28;20040;-77
2022/07/01 10:20:17;;;;;;;3.22;3.13;;;29.00;28.70;;;;;;5095066;28;20224;-78
2022/07/01 10:22:46;;;;;;;0.00;0.00;;;29.00;29.00;;;;;;5102158;28;20144;-78
2022/07/01 10:25:39;;;;;;;0.25;0.17;;;29.30;29.00;;;;;;5088886;28;20023;-77
2022/07/01 10:28:26;;;;;;;0.00;0.00;;;29.30;28.80;;;;;;5084354;28;20846;-78
2022/07/01 10:30:56;;;;;;;0.00;0.00;;;29.20;28.80;;;;;;5099967;28;20489;-77
2022/07/01 10:33:45;;;;;;;0.00;0.00;;;29.20;28.90;;;;;;5104253;28;20062;-78
2022/07/01 10:36:22;;;;;;;0.00;0.00;;;29.50;29.60;;;;;;5097601;28;20078;-79
2022/07/01 10:39:03;;;;;;;0.10;0.10;;;29.40;29.00;;;;;;5101619;28;20024;-78
2022/07/01 10:41:41;;;;;;;0.00;0.00;;;29.40;28.60;;;;;;5102961;28;20028;-79
2022/07/01 10:44:10;;;;;;;0.30;0.30;;;29.40;29.70;;;;;;5107644;28;20034;-78
2022/07/01 10:46:58;;;;;;;0.00;0.00;;;29.20;29.30;;;;;;5110644;28;20031;-79
2022/07/01 10:49:36;;;;;;;0.00;0.00;;;29.30;29.30;;;;;;5102776;28;20079;-78
2022/07/01 10:52:07;;;;;;;0.00;0.00;;;29.30;29.30;;;;;;5102106;28;20039;-75
2022/07/01 10:54:36;;;;;;;5.88;0.32;;;29.20;29.50;;;;;;5104435;28;20040;-77
2022/07/01 11:00:00;;;;;;;0.00;0.00;;;29.00;29.20;;;;;;5106254;28;20081;-77
2022/07/01 11:02:30;;;;;;;0.10;0.10;;;29.00;29.40;;;;;;5109908;28;20099;-77
2022/07/01 11:04:59;;;;;;;0.00;0.00;;;29.00;29.20;;;;;;5093024;28;20031;-79
2022/07/01 11:07:30;;;;;;;0.00;0.00;;;29.20;29.20;;;;;;5105239;27;20020;-77
2022/07/01 11:09:57;;;;;;;2.15;1.98;;;29.10;29.50;;;;;;5104932;28;20608;-76
2022/07/01 11:12:24;;;;;;;0.63;0.40;;;29.10;30.10;;;;;;5079870;28;20072;-77
2022/07/01 11:14:51;;;;;;;0.00;0.00;;;29.10;29.70;;;;;;5080330;28;20409;-77
2022/07/01 11:17:17;;;;;;;0.00;0.00;;;29.10;29.80;;;;;;5087853;28;20036;-77
2022/07/01 11:19:52;;;;;;;0.15;0.15;;;29.10;29.60;;;;;;5085265;28;20042;-76
2022/07/01 11:22:23;;;;;;;0.00;0.00;;;29.10;29.70;;;;;;5101003;28;20068;-76
2022/07/01 11:24:57;;;;;;;0.35;0.00;;;29.10;29.50;;;;;;5104800;28;20012;-77
2022/07/01 11:27:24;;;;;;;0.00;0.00;;;28.90;29.40;;;;;;5108354;28;20070;-78
2022/07/01 11:29:57;;;;;;;0.00;0.00;;;28.90;29.80;;;;;;5109459;28;20051;-77
2022/07/01 11:32:28;;;;;;;6.55;1.98;;;28.80;29.50;;;;;;5104329;27;20482;-76
2022/07/01 11:34:56;;;;;;;0.00;0.00;;;29.00;29.50;;;;;;5088316;28;20023;-77
2022/07/01 11:40:13;;;;;;;0.00;0.00;;;29.20;29.70;;;;;;5109934;27;20085;-78
2022/07/01 11:42:40;;;;;;;0.00;0.00;;;29.50;29.60;;;;;;5086592;27;20114;-77
2022/07/01 11:45:07;;;;;;;0.00;0.00;;;29.60;29.20;;;;;;5090889;28;20028;-76
2022/07/01 11:47:34;;;;;;;3.45;3.35;;;29.50;28.90;;;;;;5104071;28;20128;-77
2022/07/01 11:50:01;;;;;;;0.00;0.00;;;29.40;28.70;;;;;;5105941;28;20485;-75
2022/07/01 11:52:27;;;;;;;0.00;0.00;;;29.30;29.00;;;;;;5101127;28;20454;-79
2022/07/01 11:54:57;;;;;;;0.00;0.00;;;29.40;29.10;;;;;;5096064;27;20027;-78
2022/07/01 11:57:28;;;;;;;0.00;0.00;;;29.30;29.00;;;;;;5087051;28;21597;-79
2022/07/01 11:59:56;;;;;;;0.00;0.00;;;29.50;28.80;;;;;;5113885;28;20072;-80
2022/07/01 12:02:23;;;;;;;0.00;0.00;;;29.70;28.50;;;;;;5118474;28;20032;-78
2022/07/01 12:04:51;;;;;;;0.00;0.00;;;29.70;28.80;;;;;;5130310;28;20027;-78
2022/07/01 12:07:24;;;;;;;0.00;0.00;;;29.90;28.60;;;;;;5115615;27;20026;-79
2022/07/01 12:09:50;;;;;;;0.00;0.00;;;30.00;28.70;;;;;;5110227;28;20028;-76
2022/07/01 12:12:23;;;;;;;0.00;0.00;;;30.00;28.30;;;;;;5102130;28;20024;-79
2022/07/01 12:14:58;;;;;;;0.00;0.00;;;30.00;28.60;;;;;;5097823;27;20044;-78
2022/07/01 12:17:27;;;;;;;0.00;0.00;;;29.70;29.30;;;;;;5090709;28;20533;-79
2022/07/01 12:19:54;;;;;;;0.00;0.00;;;29.50;29.40;;;;;;5084751;28;20034;-79
2022/07/01 12:22:26;;;;;;;0.00;0.00;;;29.10;29.10;;;;;;5109879;28;20028;-79
2022/07/01 12:25:14;;;;;;;0.00;0.00;;;29.00;29.90;;;;;;5081573;28;20502;-78
2022/07/01 12:27:41;;;;;;;0.00;0.00;;;28.70;29.80;;;;;;5101618;27;20031;-78
2022/07/01 12:30:10;;;;;;;0.20;0.17;;;28.80;29.10;;;;;;5101104;28;20028;-75
2022/07/01 12:32:38;;;;;;;0.00;0.00;;;28.80;29.20;;;;;;5104034;28;20024;-75
2022/07/01 12:37:53;;;;;;;0.00;0.00;;;28.70;29.30;;;;;;5104279;28;20110;-77
2022/07/01 12:40:29;;;;;;;0.52;0.47;;;28.70;29.50;;;;;;5096116;28;20031;-78
2022/07/01 12:42:57;;;;;;;0.00;0.00;;;28.50;29.70;;;;;;5082829;28;20111;-77
2022/07/01 12:45:25;;;;;;;0.00;0.00;;;28.60;29.70;;;;;;5082678;28;20047;-75
2022/07/01 12:47:56;;;;;;;2.42;0.30;;;28.80;28.50;;;;;;5081017;28;20023;-77
2022/07/01 12:50:31;;;;;;;0.00;0.00;;;28.70;28.60;;;;;;5080553;27;20038;-79
2022/07/01 12:53:11;;;;;;;0.00;0.00;;;28.80;28.90;;;;;;5094055;28;20056;-76
2022/07/01 12:55:42;;;;;;;0.00;0.00;;;28.90;28.60;;;;;;5092882;28;20028;-77
2022/07/01 12:58:21;;;;;;;0.57;0.40;;;29.00;28.70;;;;;;5102310;28;20164;-77
2022/07/01 13:00:49;;;;;;;0.00;0.00;;;28.90;27.70;;;;;;5111903;28;20019;-77
2022/07/01 13:03:20;;;;;;;0.00;0.00;;;28.70;28.80;;;;;;5113868;28;20034;-76
2022/07/01 13:05:55;;;;;;;0.00;0.00;;;29.00;28.50;;;;;;5107742;28;20477;-77
2022/07/01 13:08:22;;;;;;;0.00;0.00;;;29.00;28.20;;;;;;5074654;28;20445;-77
2022/07/01 13:10:49;;;;;;;0.00;0.00;;;29.10;28.00;;;;;;5091719;27;20023;-78